sensor_id;sensor_type;location;lat;lon;timestamp;pressure;altitude;pressure_sealevel;temperature;humidity
70921;BME280;58572;48.110;19.838;2024-01-27T00:01:29;97960.81;;;5.38;83.75
70921;BME280;58572;48.110;19.838;2024-01-27T00:03:56;97958.63;;;6.45;78.38
70921;BME280;58572;48.110;19.838;2024-01-27T00:06:24;97960.59;;;6.27;76.35
70921;BME280;58572;48.110;19.838;2024-01-27T00:08:51;97973.47;;;6.20;79.13
70921;BME280;58572;48.110;19.838;2024-01-27T00:11:18;97979.53;;;5.67;80.01
70921;BME280;58572;48.110;19.838;2024-01-27T00:13:45;97973.41;;;6.37;77.13
70921;BME280;58572;48.110;19.838;2024-01-27T00:16:12;97977.56;;;4.90;84.22
70921;BME280;58572;48.110;19.838;2024-01-27T00:18:41;97974.03;;;5.06;83.27
70921;BME280;58572;48.110;19.838;2024-01-27T00:21:08;97972.53;;;5.49;83.02
70921;BME280;58572;48.110;19.838;2024-01-27T00:23:35;97977.63;;;4.95;84.19
70921;BME280;58572;48.110;19.838;2024-01-27T00:26:02;97986.03;;;5.16;84.06
70921;BME280;58572;48.110;19.838;2024-01-27T00:28:30;97983.34;;;5.32;84.29
70921;BME280;58572;48.110;19.838;2024-01-27T00:30:57;97996.09;;;5.20;82.87
70921;BME280;58572;48.110;19.838;2024-01-27T00:33:24;98007.19;;;5.07;86.04
70921;BME280;58572;48.110;19.838;2024-01-27T00:35:53;98008.00;;;6.18;78.48
70921;BME280;58572;48.110;19.838;2024-01-27T00:38:20;98009.56;;;5.92;77.50
70921;BME280;58572;48.110;19.838;2024-01-27T00:40:47;98027.69;;;5.41;81.43
70921;BME280;58572;48.110;19.838;2024-01-27T00:43:14;98037.53;;;4.86;84.25
70921;BME280;58572;48.110;19.838;2024-01-27T00:45:41;98033.34;;;5.40;83.49
70921;BME280;58572;48.110;19.838;2024-01-27T00:48:08;98038.25;;;6.20;77.48
70921;BME280;58572;48.110;19.838;2024-01-27T00:50:36;98047.47;;;5.86;78.75
70921;BME280;58572;48.110;19.838;2024-01-27T00:53:05;98050.94;;;5.64;80.95
70921;BME280;58572;48.110;19.838;2024-01-27T00:55:32;98048.03;;;5.49;82.39
70921;BME280;58572;48.110;19.838;2024-01-27T00:57:59;98064.16;;;5.83;79.72
70921;BME280;58572;48.110;19.838;2024-01-27T01:00:26;98072.72;;;5.41;82.23
70921;BME280;58572;48.110;19.838;2024-01-27T01:02:54;98076.72;;;5.38;82.85
70921;BME280;58572;48.110;19.838;2024-01-27T01:05:21;98076.72;;;5.38;82.49
70921;BME280;58572;48.110;19.838;2024-01-27T01:07:48;98070.88;;;5.13;83.50
70921;BME280;58572;48.110;19.838;2024-01-27T01:10:16;98076.38;;;5.35;84.58
70921;BME280;58572;48.110;19.838;2024-01-27T01:12:44;98079.41;;;5.55;83.05
70921;BME280;58572;48.110;19.838;2024-01-27T01:15:11;98067.56;;;5.56;80.59
70921;BME280;58572;48.110;19.838;2024-01-27T01:17:38;98077.28;;;5.57;82.20
70921;BME280;58572;48.110;19.838;2024-01-27T01:20:07;98075.00;;;5.49;82.57
70921;BME280;58572;48.110;19.838;2024-01-27T01:22:34;98079.91;;;5.52;81.24
70921;BME280;58572;48.110;19.838;2024-01-27T01:25:01;98094.03;;;4.97;85.53
70921;BME280;58572;48.110;19.838;2024-01-27T01:27:28;98089.22;;;5.28;83.31
70921;BME280;58572;48.110;19.838;2024-01-27T01:29:56;98089.22;;;5.61;81.32
70921;BME280;58572;48.110;19.838;2024-01-27T01:32:23;98069.28;;;5.45;82.49
70921;BME280;58572;48.110;19.838;2024-01-27T01:34:50;98094.69;;;5.50;82.53
70921;BME280;58572;48.110;19.838;2024-01-27T01:37:17;98105.22;;;5.34;83.78
70921;BME280;58572;48.110;19.838;2024-01-27T01:39:44;98104.72;;;5.37;83.14
70921;BME280;58572;48.110;19.838;2024-01-27T01:42:11;98107.19;;;5.72;81.05
70921;BME280;58572;48.110;19.838;2024-01-27T01:44:40;98119.91;;;5.27;85.66
70921;BME280;58572;48.110;19.838;2024-01-27T01:47:07;98118.97;;;4.76;85.97
70921;BME280;58572;48.110;19.838;2024-01-27T01:49:36;98110.13;;;5.37;84.76
70921;BME280;58572;48.110;19.838;2024-01-27T01:52:04;98109.97;;;5.44;82.40
70921;BME280;58572;48.110;19.838;2024-01-27T01:54:32;98111.09;;;5.48;82.21
70921;BME280;58572;48.110;19.838;2024-01-27T01:56:59;98111.50;;;5.23;83.42
70921;BME280;58572;48.110;19.838;2024-01-27T01:59:26;98119.28;;;5.70;79.81
70921;BME280;58572;48.110;19.838;2024-01-27T02:01:55;98121.38;;;5.85;79.07
70921;BME280;58572;48.110;19.838;2024-01-27T02:04:22;98132.03;;;5.12;80.64
70921;BME280;58572;48.110;19.838;2024-01-27T02:06:49;98126.78;;;5.51;79.78
70921;BME280;58572;48.110;19.838;2024-01-27T02:09:16;98126.63;;;4.67;80.47
70921;BME280;58572;48.110;19.838;2024-01-27T02:11:43;98125.75;;;5.07;79.58
70921;BME280;58572;48.110;19.838;2024-01-27T02:14:10;98115.03;;;4.95;80.55
70921;BME280;58572;48.110;19.838;2024-01-27T02:16:38;98110.22;;;5.14;79.12
70921;BME280;58572;48.110;19.838;2024-01-27T02:19:06;98102.97;;;5.14;79.35
70921;BME280;58572;48.110;19.838;2024-01-27T02:21:33;98108.09;;;4.99;79.06
70921;BME280;58572;48.110;19.838;2024-01-27T02:24:00;98114.00;;;4.56;81.33
70921;BME280;58572;48.110;19.838;2024-01-27T02:26:29;98109.50;;;5.19;78.84
70921;BME280;58572;48.110;19.838;2024-01-27T02:28:56;98110.56;;;5.18;78.21
70921;BME280;58572;48.110;19.838;2024-01-27T02:31:23;98121.38;;;4.89;78.70
70921;BME280;58572;48.110;19.838;2024-01-27T02:33:50;98129.81;;;5.09;79.34
70921;BME280;58572;48.110;19.838;2024-01-27T02:36:17;98132.34;;;4.71;80.00
70921;BME280;58572;48.110;19.838;2024-01-27T02:38:45;98137.50;;;5.18;77.95
70921;BME280;58572;48.110;19.838;2024-01-27T02:41:12;98132.72;;;4.91;78.89
70921;BME280;58572;48.110;19.838;2024-01-27T02:43:41;98141.75;;;4.57;80.37
70921;BME280;58572;48.110;19.838;2024-01-27T02:46:11;98143.72;;;4.61;81.22
70921;BME280;58572;48.110;19.838;2024-01-27T02:48:40;98143.44;;;4.74;80.75
70921;BME280;58572;48.110;19.838;2024-01-27T02:51:07;98150.13;;;4.72;81.37
70921;BME280;58572;48.110;19.838;2024-01-27T02:53:34;98160.31;;;4.70;80.72
70921;BME280;58572;48.110;19.838;2024-01-27T02:56:01;98171.13;;;4.58;80.91
70921;BME280;58572;48.110;19.838;2024-01-27T02:58:28;98165.66;;;4.81;79.95
70921;BME280;58572;48.110;19.838;2024-01-27T03:00:57;98180.53;;;4.84;79.48
70921;BME280;58572;48.110;19.838;2024-01-27T03:03:24;98177.50;;;5.09;78.83
70921;BME280;58572;48.110;19.838;2024-01-27T03:05:51;98182.16;;;4.85;77.83
70921;BME280;58572;48.110;19.838;2024-01-27T03:08:18;98187.94;;;5.05;78.67
70921;BME280;58572;48.110;19.838;2024-01-27T03:10:45;98194.13;;;5.63;76.49
70921;BME280;58572;48.110;19.838;2024-01-27T03:13:12;98205.19;;;5.33;76.73
70921;BME280;58572;48.110;19.838;2024-01-27T03:15:39;98215.72;;;5.06;77.72
70921;BME280;58572;48.110;19.838;2024-01-27T03:18:09;98218.44;;;5.34;76.77
70921;BME280;58572;48.110;19.838;2024-01-27T03:20:36;98214.19;;;5.10;76.68
70921;BME280;58572;48.110;19.838;2024-01-27T03:23:04;98215.69;;;4.77;78.09
70921;BME280;58572;48.110;19.838;2024-01-27T03:25:31;98224.44;;;4.85;77.44
70921;BME280;58572;48.110;19.838;2024-01-27T03:27:58;98229.75;;;5.08;77.24
70921;BME280;58572;48.110;19.838;2024-01-27T03:30:26;98236.25;;;4.95;77.42
70921;BME280;58572;48.110;19.838;2024-01-27T03:32:53;98235.69;;;4.81;77.47
70921;BME280;58572;48.110;19.838;2024-01-27T03:35:22;98240.00;;;4.94;76.39
70921;BME280;58572;48.110;19.838;2024-01-27T03:37:49;98236.03;;;4.85;77.40
70921;BME280;58572;48.110;19.838;2024-01-27T03:40:17;98254.69;;;5.27;75.91
70921;BME280;58572;48.110;19.838;2024-01-27T03:42:44;98253.63;;;5.28;74.41
70921;BME280;58572;48.110;19.838;2024-01-27T03:45:12;98261.75;;;5.04;76.12
70921;BME280;58572;48.110;19.838;2024-01-27T03:47:39;98278.31;;;4.85;75.67
70921;BME280;58572;48.110;19.838;2024-01-27T03:50:07;98293.69;;;4.61;76.89
70921;BME280;58572;48.110;19.838;2024-01-27T03:52:36;98293.19;;;4.17;77.74
70921;BME280;58572;48.110;19.838;2024-01-27T03:55:03;98262.88;;;4.68;76.52
70921;BME280;58572;48.110;19.838;2024-01-27T03:57:30;98302.47;;;4.44;76.31
70921;BME280;58572;48.110;19.838;2024-01-27T03:59:58;98306.44;;;4.54;77.24
70921;BME280;58572;48.110;19.838;2024-01-27T04:02:25;98312.28;;;4.74;75.44
70921;BME280;58572;48.110;19.838;2024-01-27T04:04:52;98315.09;;;4.67;74.08
70921;BME280;58572;48.110;19.838;2024-01-27T04:07:19;98334.44;;;3.69;77.39
70921;BME280;58572;48.110;19.838;2024-01-27T04:09:47;98330.19;;;4.80;75.31
70921;BME280;58572;48.110;19.838;2024-01-27T04:12:14;98344.38;;;3.99;77.64
70921;BME280;58572;48.110;19.838;2024-01-27T04:14:42;98345.72;;;4.20;75.80
70921;BME280;58572;48.110;19.838;2024-01-27T04:17:09;98356.09;;;4.16;77.08
70921;BME280;58572;48.110;19.838;2024-01-27T04:19:36;98359.47;;;4.00;78.16
70921;BME280;58572;48.110;19.838;2024-01-27T04:22:03;98358.38;;;4.19;75.81
70921;BME280;58572;48.110;19.838;2024-01-27T04:24:30;98364.47;;;4.38;76.08
70921;BME280;58572;48.110;19.838;2024-01-27T04:26:59;98306.19;;;4.20;76.15
70921;BME280;58572;48.110;19.838;2024-01-27T04:29:27;98369.91;;;4.61;74.80
70921;BME280;58572;48.110;19.838;2024-01-27T04:31:55;98367.66;;;4.46;72.65
70921;BME280;58572;48.110;19.838;2024-01-27T04:34:22;98366.63;;;4.59;74.46
70921;BME280;58572;48.110;19.838;2024-01-27T04:36:49;98376.09;;;4.62;74.03
70921;BME280;58572;48.110;19.838;2024-01-27T04:39:16;98344.63;;;4.09;74.79
70921;BME280;58572;48.110;19.838;2024-01-27T04:41:43;98379.47;;;4.34;75.28
70921;BME280;58572;48.110;19.838;2024-01-27T04:44:12;98393.19;;;4.14;75.06
70921;BME280;58572;48.110;19.838;2024-01-27T04:46:39;98389.41;;;4.33;71.52
70921;BME280;58572;48.110;19.838;2024-01-27T04:49:06;98393.03;;;4.39;73.48
70921;BME280;58572;48.110;19.838;2024-01-27T04:51:33;98398.78;;;4.42;69.41
70921;BME280;58572;48.110;19.838;2024-01-27T04:54:00;98407.81;;;4.48;68.47
70921;BME280;58572;48.110;19.838;2024-01-27T04:56:27;98428.13;;;4.32;72.65
70921;BME280;58572;48.110;19.838;2024-01-27T04:58:54;98436.97;;;4.51;69.93
70921;BME280;58572;48.110;19.838;2024-01-27T05:01:23;98437.75;;;4.40;72.07
70921;BME280;58572;48.110;19.838;2024-01-27T05:03:50;98454.00;;;4.33;67.23
70921;BME280;58572;48.110;19.838;2024-01-27T05:06:18;98458.53;;;4.63;68.91
70921;BME280;58572;48.110;19.838;2024-01-27T05:08:45;98470.25;;;4.80;67.86
70921;BME280;58572;48.110;19.838;2024-01-27T05:11:12;98481.38;;;4.30;71.95
70921;BME280;58572;48.110;19.838;2024-01-27T05:13:40;98491.63;;;3.05;76.90
70921;BME280;58572;48.110;19.838;2024-01-27T05:16:07;98484.47;;;3.42;76.01
70921;BME280;58572;48.110;19.838;2024-01-27T05:18:36;98499.91;;;3.29;76.03
70921;BME280;58572;48.110;19.838;2024-01-27T05:21:03;98509.56;;;3.11;77.86
70921;BME280;58572;48.110;19.838;2024-01-27T05:23:30;98509.06;;;3.64;75.81
70921;BME280;58572;48.110;19.838;2024-01-27T05:25:57;98514.16;;;2.79;77.62
70921;BME280;58572;48.110;19.838;2024-01-27T05:28:24;98504.84;;;3.32;77.42
70921;BME280;58572;48.110;19.838;2024-01-27T05:30:51;98514.44;;;3.46;77.57
70921;BME280;58572;48.110;19.838;2024-01-27T05:33:19;98517.34;;;2.95;76.59
70921;BME280;58572;48.110;19.838;2024-01-27T05:35:47;98503.97;;;3.74;74.02
70921;BME280;58572;48.110;19.838;2024-01-27T05:38:14;98494.22;;;3.18;77.41
70921;BME280;58572;48.110;19.838;2024-01-27T05:40:42;98520.25;;;3.61;74.43
70921;BME280;58572;48.110;19.838;2024-01-27T05:43:11;98513.94;;;2.81;76.26
70921;BME280;58572;48.110;19.838;2024-01-27T05:45:38;98515.69;;;3.98;75.15
70921;BME280;58572;48.110;19.838;2024-01-27T05:48:06;98520.84;;;3.45;74.76
70921;BME280;58572;48.110;19.838;2024-01-27T05:50:33;98524.59;;;3.80;73.20
70921;BME280;58572;48.110;19.838;2024-01-27T05:53:03;98532.50;;;4.12;74.79
70921;BME280;58572;48.110;19.838;2024-01-27T05:55:30;98533.72;;;3.98;73.49
70921;BME280;58572;48.110;19.838;2024-01-27T05:57:57;98534.16;;;4.13;73.83
70921;BME280;58572;48.110;19.838;2024-01-27T06:00:24;98536.69;;;4.08;73.47
70921;BME280;58572;48.110;19.838;2024-01-27T06:02:51;98554.03;;;4.12;73.46
70921;BME280;58572;48.110;19.838;2024-01-27T06:05:18;98555.38;;;3.84;74.33
70921;BME280;58572;48.110;19.838;2024-01-27T06:07:46;98554.84;;;4.12;71.03
70921;BME280;58572;48.110;19.838;2024-01-27T06:10:16;98556.25;;;4.15;72.38
70921;BME280;58572;48.110;19.838;2024-01-27T06:12:43;98559.25;;;3.89;74.42
70921;BME280;58572;48.110;19.838;2024-01-27T06:15:10;98566.22;;;4.33;73.02
70921;BME280;58572;48.110;19.838;2024-01-27T06:17:38;98569.97;;;4.32;72.64
70921;BME280;58572;48.110;19.838;2024-01-27T06:20:06;98569.44;;;4.05;73.98
70921;BME280;58572;48.110;19.838;2024-01-27T06:22:33;98587.06;;;3.82;74.69
70921;BME280;58572;48.110;19.838;2024-01-27T06:25:00;98571.75;;;3.83;73.22
70921;BME280;58572;48.110;19.838;2024-01-27T06:27:29;98576.16;;;3.96;73.73
70921;BME280;58572;48.110;19.838;2024-01-27T06:29:56;98580.94;;;3.94;74.35
70921;BME280;58572;48.110;19.838;2024-01-27T06:32:23;98594.84;;;4.09;74.21
70921;BME280;58572;48.110;19.838;2024-01-27T06:34:50;98585.13;;;4.08;74.16
70921;BME280;58572;48.110;19.838;2024-01-27T06:37:17;98588.41;;;3.92;74.35
70921;BME280;58572;48.110;19.838;2024-01-27T06:39:44;98586.75;;;4.09;74.07
70921;BME280;58572;48.110;19.838;2024-01-27T06:42:12;98590.50;;;4.08;74.51
70921;BME280;58572;48.110;19.838;2024-01-27T06:44:40;98593.66;;;4.23;73.74
70921;BME280;58572;48.110;19.838;2024-01-27T06:47:07;98583.78;;;4.35;73.34
70921;BME280;58572;48.110;19.838;2024-01-27T06:49:35;98605.59;;;4.09;74.36
70921;BME280;58572;48.110;19.838;2024-01-27T06:52:03;98603.06;;;4.32;73.65
70921;BME280;58572;48.110;19.838;2024-01-27T06:54:30;98619.13;;;4.02;75.35
70921;BME280;58572;48.110;19.838;2024-01-27T06:56:59;98619.63;;;3.93;74.11
70921;BME280;58572;48.110;19.838;2024-01-27T06:59:26;98629.69;;;4.22;74.29
70921;BME280;58572;48.110;19.838;2024-01-27T07:01:55;98626.69;;;4.30;73.36
70921;BME280;58572;48.110;19.838;2024-01-27T07:04:23;98629.25;;;4.25;72.93
70921;BME280;58572;48.110;19.838;2024-01-27T07:06:50;98627.75;;;4.47;73.29
70921;BME280;58572;48.110;19.838;2024-01-27T07:09:17;98632.53;;;4.45;73.15
70921;BME280;58572;48.110;19.838;2024-01-27T07:11:45;98636.13;;;4.39;73.19
70921;BME280;58572;48.110;19.838;2024-01-27T07:14:12;98639.06;;;3.95;74.65
70921;BME280;58572;48.110;19.838;2024-01-27T07:16:40;98633.25;;;4.53;72.41
70921;BME280;58572;48.110;19.838;2024-01-27T07:19:08;98621.16;;;4.43;72.43
70921;BME280;58572;48.110;19.838;2024-01-27T07:21:37;98643.00;;;4.35;73.10
70921;BME280;58572;48.110;19.838;2024-01-27T07:24:04;98641.19;;;4.66;72.72
70921;BME280;58572;48.110;19.838;2024-01-27T07:26:31;98626.22;;;4.70;72.03
70921;BME280;58572;48.110;19.838;2024-01-27T07:28:58;98636.88;;;4.28;72.96
70921;BME280;58572;48.110;19.838;2024-01-27T07:31:25;98627.75;;;4.47;71.40
70921;BME280;58572;48.110;19.838;2024-01-27T07:33:52;98622.06;;;4.37;72.26
70921;BME280;58572;48.110;19.838;2024-01-27T07:36:21;98622.06;;;4.37;73.14
70921;BME280;58572;48.110;19.838;2024-01-27T07:38:48;98627.97;;;4.28;71.23
70921;BME280;58572;48.110;19.838;2024-01-27T07:41:15;98625.22;;;3.73;73.75
70921;BME280;58572;48.110;19.838;2024-01-27T07:43:42;98614.66;;;4.33;71.60
70921;BME280;58572;48.110;19.838;2024-01-27T07:46:09;98613.09;;;4.25;72.60
70921;BME280;58572;48.110;19.838;2024-01-27T07:48:36;98609.84;;;4.53;70.55
70921;BME280;58572;48.110;19.838;2024-01-27T07:51:04;98615.31;;;4.10;70.98
70921;BME280;58572;48.110;19.838;2024-01-27T07:53:33;98623.97;;;4.12;72.03
70921;BME280;58572;48.110;19.838;2024-01-27T07:56:00;98620.84;;;3.97;72.90
70921;BME280;58572;48.110;19.838;2024-01-27T07:58:27;98616.59;;;4.07;72.18
70921;BME280;58572;48.110;19.838;2024-01-27T08:00:54;98627.97;;;4.28;71.91
70921;BME280;58572;48.110;19.838;2024-01-27T08:03:21;98645.63;;;4.42;71.25
70921;BME280;58572;48.110;19.838;2024-01-27T08:05:48;98646.78;;;4.09;72.00
70921;BME280;58572;48.110;19.838;2024-01-27T08:08:15;98641.28;;;4.23;72.04
70921;BME280;58572;48.110;19.838;2024-01-27T08:10:44;98647.28;;;4.00;72.35
70921;BME280;58572;48.110;19.838;2024-01-27T08:13:11;98641.47;;;4.03;72.37
70921;BME280;58572;48.110;19.838;2024-01-27T08:15:38;98646.44;;;4.24;69.58
70921;BME280;58572;48.110;19.838;2024-01-27T08:18:06;98642.84;;;4.30;70.39
70921;BME280;58572;48.110;19.838;2024-01-27T08:20:33;98641.47;;;4.03;71.81
70921;BME280;58572;48.110;19.838;2024-01-27T08:23:00;98613.06;;;3.89;71.76
70921;BME280;58572;48.110;19.838;2024-01-27T08:25:27;98628.31;;;4.13;68.53
70921;BME280;58572;48.110;19.838;2024-01-27T08:27:55;98566.56;;;3.63;71.84
70921;BME280;58572;48.110;19.838;2024-01-27T08:30:22;98624.75;;;4.19;70.70
70921;BME280;58572;48.110;19.838;2024-01-27T08:32:49;98616.34;;;4.09;71.00
70921;BME280;58572;48.110;19.838;2024-01-27T08:35:16;98614.94;;;4.06;71.48
70921;BME280;58572;48.110;19.838;2024-01-27T08:37:43;98614.63;;;4.14;68.44
70921;BME280;58572;48.110;19.838;2024-01-27T08:40:11;98609.59;;;4.25;70.46
70921;BME280;58572;48.110;19.838;2024-01-27T08:42:39;98613.91;;;4.26;70.27
70921;BME280;58572;48.110;19.838;2024-01-27T08:45:08;98606.38;;;4.34;69.91
70921;BME280;58572;48.110;19.838;2024-01-27T08:47:35;98607.28;;;4.28;69.36
70921;BME280;58572;48.110;19.838;2024-01-27T08:50:03;98619.59;;;4.36;69.81
70921;BME280;58572;48.110;19.838;2024-01-27T08:52:31;98521.59;;;3.89;67.47
70921;BME280;58572;48.110;19.838;2024-01-27T08:54:58;98646.94;;;4.51;68.25
70921;BME280;58572;48.110;19.838;2024-01-27T08:57:25;98655.06;;;5.11;66.95
70921;BME280;58572;48.110;19.838;2024-01-27T08:59:52;98655.38;;;5.21;66.35
70921;BME280;58572;48.110;19.838;2024-01-27T09:02:20;98665.53;;;4.89;66.04
70921;BME280;58572;48.110;19.838;2024-01-27T09:04:47;98672.03;;;5.00;66.99
70921;BME280;58572;48.110;19.838;2024-01-27T09:07:14;98682.75;;;4.70;68.35
70921;BME280;58572;48.110;19.838;2024-01-27T09:09:42;98685.72;;;4.98;68.55
70921;BME280;58572;48.110;19.838;2024-01-27T09:12:09;98682.75;;;5.18;66.26
70921;BME280;58572;48.110;19.838;2024-01-27T09:14:36;98676.28;;;5.91;65.93
70921;BME280;58572;48.110;19.838;2024-01-27T09:17:03;98668.72;;;5.81;65.84
70921;BME280;58572;48.110;19.838;2024-01-27T09:19:32;98681.97;;;5.71;65.57
70921;BME280;58572;48.110;19.838;2024-01-27T09:21:59;98661.25;;;5.30;61.69
70921;BME280;58572;48.110;19.838;2024-01-27T09:24:26;98672.88;;;6.42;63.67
70921;BME280;58572;48.110;19.838;2024-01-27T09:26:53;98661.56;;;5.75;65.40
70921;BME280;58572;48.110;19.838;2024-01-27T09:29:20;98661.47;;;6.52;62.86
70921;BME280;58572;48.110;19.838;2024-01-27T09:31:47;98654.06;;;5.89;63.23
70921;BME280;58572;48.110;19.838;2024-01-27T09:34:14;98657.31;;;5.56;63.91
70921;BME280;58572;48.110;19.838;2024-01-27T09:36:43;98671.88;;;5.66;63.92
70921;BME280;58572;48.110;19.838;2024-01-27T09:39:10;98663.84;;;6.13;62.65
70921;BME280;58572;48.110;19.838;2024-01-27T09:41:37;98651.03;;;7.12;61.31
70921;BME280;58572;48.110;19.838;2024-01-27T09:44:05;98643.66;;;6.27;62.32
70921;BME280;58572;48.110;19.838;2024-01-27T09:46:32;98656.00;;;6.75;58.60
70921;BME280;58572;48.110;19.838;2024-01-27T09:49:01;98641.94;;;7.97;59.78
70921;BME280;58572;48.110;19.838;2024-01-27T09:51:29;98545.22;;;6.47;57.88
70921;BME280;58572;48.110;19.838;2024-01-27T09:53:58;98649.25;;;7.18;60.23
70921;BME280;58572;48.110;19.838;2024-01-27T09:56:25;98656.22;;;6.85;61.03
70921;BME280;58572;48.110;19.838;2024-01-27T09:58:53;98657.75;;;7.10;58.52
70921;BME280;58572;48.110;19.838;2024-01-27T10:01:21;98660.94;;;7.07;59.47
70921;BME280;58572;48.110;19.838;2024-01-27T10:03:50;98669.06;;;6.66;57.96
70921;BME280;58572;48.110;19.838;2024-01-27T10:06:18;98669.28;;;6.77;60.35
70921;BME280;58572;48.110;19.838;2024-01-27T10:08:51;98655.50;;;7.80;57.95
70921;BME280;58572;48.110;19.838;2024-01-27T10:11:21;98660.97;;;8.36;58.47
70921;BME280;58572;48.110;19.838;2024-01-27T10:13:54;98669.31;;;8.17;57.41
70921;BME280;58572;48.110;19.838;2024-01-27T10:16:21;98670.41;;;6.92;59.08
70921;BME280;58572;48.110;19.838;2024-01-27T10:18:59;98677.28;;;6.71;61.34
70921;BME280;58572;48.110;19.838;2024-01-27T10:21:26;98689.00;;;6.77;59.49
70921;BME280;58572;48.110;19.838;2024-01-27T10:23:54;98681.09;;;6.24;61.08
70921;BME280;58572;48.110;19.838;2024-01-27T10:26:22;98683.44;;;5.97;60.25
70921;BME280;58572;48.110;19.838;2024-01-27T10:28:53;98696.94;;;5.97;60.19
70921;BME280;58572;48.110;19.838;2024-01-27T10:31:20;98695.31;;;6.31;59.31
70921;BME280;58572;48.110;19.838;2024-01-27T10:33:53;98686.22;;;6.60;59.03
70921;BME280;58572;48.110;19.838;2024-01-27T10:36:20;98685.19;;;5.91;58.42
70921;BME280;58572;48.110;19.838;2024-01-27T10:38:47;98694.38;;;6.25;58.18
70921;BME280;58572;48.110;19.838;2024-01-27T10:41:22;98680.34;;;5.82;59.55
70921;BME280;58572;48.110;19.838;2024-01-27T10:43:50;98695.78;;;6.39;57.62
70921;BME280;58572;48.110;19.838;2024-01-27T10:46:19;98676.41;;;6.31;59.14
70921;BME280;58572;48.110;19.838;2024-01-27T10:48:50;98696.38;;;6.30;58.89
70921;BME280;58572;48.110;19.838;2024-01-27T10:51:22;98693.41;;;6.08;58.30
70921;BME280;58572;48.110;19.838;2024-01-27T10:53:52;98686.91;;;6.79;57.27
70921;BME280;58572;48.110;19.838;2024-01-27T10:56:23;98673.06;;;6.64;55.94
70921;BME280;58572;48.110;19.838;2024-01-27T10:58:52;98684.97;;;6.91;55.98
70921;BME280;58572;48.110;19.838;2024-01-27T11:01:19;98677.47;;;6.82;56.83
70921;BME280;58572;48.110;19.838;2024-01-27T11:03:50;98657.53;;;6.71;56.44
70921;BME280;58572;48.110;19.838;2024-01-27T11:06:22;98662.56;;;6.79;55.76
70921;BME280;58572;48.110;19.838;2024-01-27T11:08:49;98639.78;;;6.75;54.58
70921;BME280;58572;48.110;19.838;2024-01-27T11:11:17;98621.06;;;6.57;57.52
70921;BME280;58572;48.110;19.838;2024-01-27T11:13:45;98628.16;;;6.75;56.62
70921;BME280;58572;48.110;19.838;2024-01-27T11:16:17;98634.97;;;6.14;56.59
70921;BME280;58572;48.110;19.838;2024-01-27T11:18:45;98607.59;;;6.45;56.68
70921;BME280;58572;48.110;19.838;2024-01-27T11:21:14;98609.13;;;5.83;58.28
70921;BME280;58572;48.110;19.838;2024-01-27T11:23:42;98595.75;;;5.88;55.74
70921;BME280;58572;48.110;19.838;2024-01-27T11:26:10;98609.88;;;6.01;57.54
70921;BME280;58572;48.110;19.838;2024-01-27T11:28:40;98627.78;;;5.84;54.90
70921;BME280;58572;48.110;19.838;2024-01-27T11:31:09;98635.44;;;6.22;57.37
70921;BME280;58572;48.110;19.838;2024-01-27T11:33:43;98646.13;;;6.17;58.06
70921;BME280;58572;48.110;19.838;2024-01-27T11:36:18;98657.91;;;6.63;57.52
70921;BME280;58572;48.110;19.838;2024-01-27T11:38:46;98662.78;;;6.37;57.67
70921;BME280;58572;48.110;19.838;2024-01-27T11:41:23;98624.88;;;6.09;56.78
70921;BME280;58572;48.110;19.838;2024-01-27T11:43:54;98666.66;;;6.42;56.68
70921;BME280;58572;48.110;19.838;2024-01-27T11:46:22;98659.25;;;6.49;57.92
70921;BME280;58572;48.110;19.838;2024-01-27T11:48:49;98676.41;;;6.43;58.49
70921;BME280;58572;48.110;19.838;2024-01-27T11:51:17;98679.91;;;7.23;53.76
70921;BME280;58572;48.110;19.838;2024-01-27T11:53:45;98680.25;;;7.27;56.15
70921;BME280;58572;48.110;19.838;2024-01-27T11:56:13;98675.63;;;6.70;55.71
70921;BME280;58572;48.110;19.838;2024-01-27T11:58:46;98681.22;;;6.92;57.22
70921;BME280;58572;48.110;19.838;2024-01-27T12:01:14;98688.97;;;6.37;58.52
70921;BME280;58572;48.110;19.838;2024-01-27T12:03:45;98683.97;;;6.69;55.71
70921;BME280;58572;48.110;19.838;2024-01-27T12:06:12;98683.53;;;6.60;57.69
70921;BME280;58572;48.110;19.838;2024-01-27T12:08:40;98682.28;;;6.91;53.18
70921;BME280;58572;48.110;19.838;2024-01-27T12:11:12;98680.31;;;6.75;57.33
70921;BME280;58572;48.110;19.838;2024-01-27T12:13:40;98626.97;;;6.19;57.03
70921;BME280;58572;48.110;19.838;2024-01-27T12:16:07;98685.50;;;6.77;56.48
70921;BME280;58572;48.110;19.838;2024-01-27T12:18:35;98682.50;;;6.50;52.77
70921;BME280;58572;48.110;19.838;2024-01-27T12:21:04;98684.38;;;6.49;57.52
70921;BME280;58572;48.110;19.838;2024-01-27T12:23:31;98678.81;;;6.67;54.83
70921;BME280;58572;48.110;19.838;2024-01-27T12:25:58;98685.88;;;6.57;56.04
70921;BME280;58572;48.110;19.838;2024-01-27T12:28:25;98672.38;;;6.57;57.17
70921;BME280;58572;48.110;19.838;2024-01-27T12:30:53;98680.69;;;6.67;57.26
70921;BME280;58572;48.110;19.838;2024-01-27T12:33:20;98657.22;;;6.56;57.24
70921;BME280;58572;48.110;19.838;2024-01-27T12:35:51;98652.56;;;6.39;57.47
70921;BME280;58572;48.110;19.838;2024-01-27T12:38:22;98659.75;;;6.34;55.57
70921;BME280;58572;48.110;19.838;2024-01-27T12:40:49;98655.53;;;6.78;57.46
70921;BME280;58572;48.110;19.838;2024-01-27T12:43:16;98669.94;;;6.44;56.96
70921;BME280;58572;48.110;19.838;2024-01-27T12:45:43;98674.16;;;6.16;57.84
70921;BME280;58572;48.110;19.838;2024-01-27T12:48:10;98672.78;;;6.25;57.40
70921;BME280;58572;48.110;19.838;2024-01-27T12:50:37;98665.84;;;6.41;56.66
70921;BME280;58572;48.110;19.838;2024-01-27T12:53:10;98673.91;;;6.53;55.91
70921;BME280;58572;48.110;19.838;2024-01-27T12:55:42;98663.84;;;6.13;54.49
70921;BME280;58572;48.110;19.838;2024-01-27T12:58:09;98680.41;;;6.40;54.46
70921;BME280;58572;48.110;19.838;2024-01-27T13:00:37;98680.06;;;6.36;56.09
70921;BME280;58572;48.110;19.838;2024-01-27T13:03:04;98683.56;;;6.49;56.81